Terminal Aerodrome Forecast
Issued by NWS Sioux Falls, SD

Home | Current Version | Previous Version | Text Only | Print | Product List | Glossary On
Versions: 1 2 3 4 5 6 7 8 9 10 11 12
000
FTUS43 KFSD 061732
TAFFSD
TAF
KFSD 061732Z 0618/0718 28025G35KT P6SM -SN BKN025
     FM070000 29022G30KT P6SM SCT030
     FM070700 29017G24KT P6SM SCT035
     FM071500 29020G26KT P6SM SCT035 BKN100=

USA.gov is the U.S. government's official web portal to all federal, state and local government web resources and services.